Ride Results

Spring Mountain Challenge (13-06-2010)
Ride distance: 80.0 km

Outcomes - Spring Mountain Challenge (13-06-2010)
Division No. of Entries Retired / DNE Completed Withdrawn Ineligible V/O Percentage Completed
HW 12 - 12 - - - 100.00%
MW 40 - 34 1 - 5 85.00%
LW 21 - 16 - - 5 76.19%
JN 10 - 9 - - 1 90.00%
Totals 83 - 71 1 - 11 85.54%
Results - Spring Mountain Challenge (13-06-2010)
No. Rider Horse Place Time Leg Speeds Total
Km/Hr
H/R bpm
Heavyweight
52 Paul Lengronne Cherox Kariim 1 (BC) 5:07:00 15.5, 15.7 15.64 32, 46, 49 (Avg:47)
60 Chris Nichols Bashan Memphis 2 6:10:00 12.9, 13.0 12.97 48, 48, 47 (Avg:47)
15 Olaf Lochtenberg Matta Mia Akwaseh 3 6:13:00 13.4, 12.2 12.87 35, 45, 45 (Avg:45)
40 Craig Renner Edenfels Naadam 4 6:27:00 12.7, 11.9 12.40 34, 51, 60 (Avg:55)
39 Dick Collyer Lasca's Lyric 5 6:42:00 12.9, 10.8 11.94 45, 50, 55 (Avg:52)
32 Delma Clements Kynnum Park Shaniko 6 6:49:00 12.9, 10.4 11.74 37, 43, 57 (Avg:50)
75 Bob Sample S'Shaada Quiddich 7 7:02:00 11.5, 11.1 11.37 37, 47, 55 (Avg:51)
19 Peter Toft Capers te 8 7:16:00 11.1, 10.8 11.01 37, 43, 45 (Avg:44)
33 Jackie Swan Beau 9 7:40:00 11.1, 9.6 10.43 35, 41, 46 (Avg:43)
80 Maurice Gray Gydanska 10 8:09:00 10.7, 8.8 9.82 36, 38, 41 (Avg:39)
38 Ricky Petersen Southern Cross Princess 10 8:09:00 10.8, 8.7 9.82 39, 46, 57 (Avg:51)
79 Adrian Hope-Hodgetts Bessona Santana 12 8:47:00 9.9, 8.1 9.11 31, 41, 44 (Avg:42)
Middleweight
48 Simone Krahnen La-Battist Shadow Fax 1 (BC) 4:52:00 16.2, 16.6 16.44 36, 47, 45 (Avg:46)
13 Fiona Fenech Indiana Allias 2 4:52:01 16.2, 16.6 16.44 32, 46, 47 (Avg:46)
55 Marion Lengronne Kai Hai Sterling Aaramis 3 5:07:00 15.5, 15.7 15.64 36, 45, 44 (Avg:44)
53 Camila Champagne-Bargenquast Maximal Silver Amulet 4 5:21:00 15.3, 14.4 14.95 31, 42, 44 (Avg:43)
61 Kim Schusdzarra Bashan Phoenix 5 5:34:02 12.9, 16.7 14.37 36, 36, 43 (Avg:39)
16 Sabrina Stephens Mataranka Diamonds 6 5:53:00 14.2, 12.8 13.60 32, 49, 46 (Avg:47)
28 Peter Holmes Alamo Hunter's Moon 7 5:55:00 13.7, 13.2 13.52 45, 49, 60 (Avg:54)
83 Raewyn Carter Maioro Nakita 8 6:08:00 13.5, 12.4 13.04 41, 41, 48 (Avg:44)
66 Donna Brooker Hirstglen Fargo 9 6:08:10 13.3, 12.7 13.04 34, 40, 45 (Avg:42)
67 Vanessa Tiffen Hirstglen Zanadu 10 6:09:04 13.3, 12.6 13.01 32, 38, 43 (Avg:40)
59 Debbie Edwards Chaswyk Ramazzotti 11 6:10:03 12.9, 13.0 12.97 39, 41, 49 (Avg:45)
81 Ondy Laws-King Razorback Love Song 12 6:18:00 12.6, 12.7 12.70 37, 43, 49 (Avg:46)
77 Cheryl Gaedtke Bacchante Silver 13 6:21:00 13.3, 11.7 12.60 33, 34, 48 (Avg:41)
7 Akhmed Pshunov Captain Creek Tall Boy 14 6:22:01 11.7, 13.8 12.56 41, 46, 55 (Avg:50)
45 Adrian Brickley Duray Chime The Bells 15 6:27:00 13.3, 11.4 12.40 38, 51, 52 (Avg:51)
58 Tammie Bell Moon 16 6:37:00 12.3, 11.7 12.09 33, 36, 46 (Avg:41)
18 Joy Craig Kynnum Park Winter Wind 17 6:42:00 12.9, 10.8 11.94 41, 40, 42 (Avg:41)
26 Nicole Barker Duray Djarq 18 7:03:00 11.7, 10.8 11.35 40, 49, 55 (Avg:52)
25 Bridget Nottle High Society te 18 7:03:00 11.3, 11.2 11.35 37, 45, 59 (Avg:52)
29 Lyndell Abercrombie Lindall Alabaska 20 7:05:00 11.1, 11.4 11.29 30, 42, 47 (Avg:44)
24 Penny Toft Centre Fold te 21 7:16:00 11.1, 10.8 11.01 35, 46, 45 (Avg:45)
44 Naomi Djuric Karanji Kobalt 22 7:32:00 11.7, 9.4 10.62 31, 45, 41 (Avg:43)
56 Cassie Saunders Optimus Magnus 23 7:34:00 10.7, 10.3 10.57 32, 48, 53 (Avg:50)
9 Ella Ormes Lichacz Lanamere Bay Rose 24 7:40:00 11.2, 9.5 10.43 37, 47, 43 (Avg:45)
82 Judith Burton Alcienne Earl Marak 25 7:53:00 11.5, 8.7 10.15 43, 44, 47 (Avg:45)
10 Natalie McIntyre Barkala Envoy 26 7:55:00 12.6, 8.0 10.11 32, 46, 43 (Avg:44)
31 Ouida Ratapu Bashan Malachi 27 8:09:00 13.7, 7.1 9.82 30, 43, 44 (Avg:43)
22 Pierre DeWit Rendezous te 28 8:16:00 9.9, 9.2 9.68 45, 49, 53 (Avg:51)
36 Darryl Field Gundiwidgee Shadowfax 29 8:17:00 10.6, 8.6 9.66 36, 40, 54 (Avg:47)
37 Susan Renfree Gundiwidgee Nelly 29 8:17:00 10.6, 8.6 9.66 34, 39, 41 (Avg:40)
2 Tony Bateman Cheval Arabe Daybu 31 8:19:00 10.7, 8.4 9.62 34, 40, 42 (Avg:41)
41 Kristy Brundell Splendacrest Ulysses 31 8:19:00 9.9, 9.2 9.62 31, 40, 44 (Avg:42)
43 Natashja Burton Splendacrest Perfection 31 8:19:00 9.9, 9.2 9.62 38, 45, 51 (Avg:48)
85 Sarah Love Fun 4 Us 34 8:47:00 10.1, 8.0 9.11 35, 48, 51 (Avg:49)
84 Errol Watt Yul-Arai Hassan Lame L2 0:00:00 13.5, 12.4 - 40, 55, 45 (Avg:50)
5 Caroline Fitzgerald Lanamere De Javu Widthdrawn L1 0:00:00 - - 33, 44 (Avg:44)
69 Stephen Gray Shannons Psyche Heart Rate L1 0:00:00 10.7 - 37, 59 (Avg:59)
46 Ray Vlad Mithras Darius Lame L1 0:00:00 14.2 - 36, 40 (Avg:40)
78 Jacque Wright Wilandra Silver Destiny Lame L1 0:00:00 10.0 - 45, 46 (Avg:46)
1 Sue Vacher Giddyup Lame P/R 0:00:00 - - 42
Lightweight
51 Angela Hawks Sapphire 1 (BC) 4:59:00 14.7, 18.1 16.05 34, 39, 43 (Avg:41)
54 Kym Dyball Anniversary Wish 2 5:08:00 15.6, 15.4 15.58 39, 43, 49 (Avg:46)
76 Clare Fleming Splendacrest Superb 2 5:08:00 15.8, 15.2 15.58 35, 46, 48 (Avg:47)
65 Corinne Kempter Indira 4 6:04:00 13.8, 12.4 13.19 31, 42, 50 (Avg:46)
47 Leah Begley Royal Dominier 5 6:11:01 13.8, 11.9 12.94 39, 45, 59 (Avg:52)
12 Amaya Thomas Winderella Lodge Sphinx 6 6:13:00 13.4, 12.2 12.87 35, 44, 45 (Avg:44)
30 Judy Battams Landmark Sarafeena 7 6:17:00 13.8, 11.5 12.73 39, 42, 54 (Avg:48)
20 Barbara Draheim Dunwingeri Ebony Moon 8 6:21:00 13.3, 11.7 12.60 31, 43, 49 (Avg:46)
6 Sayed mohammed Abbas Sundust Flame 9 6:22:00 11.7, 13.8 12.57 38, 45, 50 (Avg:47)
57 Jocelyn Barnes Trinity 10 6:37:00 12.3, 11.7 12.09 34, 40, 47 (Avg:43)
73 Saasha Grogan Cajun 11 7:02:00 11.5, 11.1 11.37 40, 47, 58 (Avg:52)
63 Janelle Taylor Glenewan Scout 12 7:14:00 11.3, 10.7 11.06 31, 47, 45 (Avg:46)
62 Lisa Sanchez Lisana Ghetto Booty 13 7:15:00 11.3, 10.6 11.03 30, 54, 54 (Avg:54)
8 Jan Tyrrell Willandra Wind Lancer 14 7:40:00 11.2, 9.5 10.43 35, 41, 43 (Avg:42)
11 Louise Jackson Sabajet 15 7:55:00 12.6, 8.0 10.11 34, 43, 47 (Avg:45)
21 Jessica Aistrope Sarah Jones te 16 8:16:00 9.9, 9.3 9.68 35, 47, 47 (Avg:47)
74 Maxine Leary Rose Gum Markarah Lame L2 0:00:00 13.2, 12.7 - 38, 54, 59 (Avg:56)
4 Amanda Powell Turingal Park Nikolayev Lame L2 0:00:00 14.7, 16.9 - 33, 47, 49 (Avg:48)
3 Candice Gurtner Rodborough Cisko Heart Rate L1 0:00:00 10.0 - 35, 74 (Avg:74)
23 Ute Jordan Charaway Amici Lame L1 0:00:00 11.7 - 40, 42 (Avg:42)
35 Tamara Prentice Shiraz Lame L1 0:00:00 12.4 - 36, 49 (Avg:49)
Junior
50 Erin Krahnen Ardai 1 (BC) 5:25:00 15.4, 13.9 14.77 39, 48, 47 (Avg:47)
49 Connor Krahnen Kalkadoon Shalom 1 5:25:00 15.4, 13.9 14.77 32, 46, 45 (Avg:45)
27 Natasha Willemse The Wrangler 3 5:54:00 13.8, 13.2 13.56 44, 52, 56 (Avg:54)
70 Samantha Brooker Hirstglen Zeus 4 6:27:00 13.3, 11.4 12.40 33, 41, 50 (Avg:45)
71 Sharn Brooker Hirstglen Texas Rose 4 6:27:00 13.3, 11.4 12.40 34, 44, 42 (Avg:43)
14 Alexandra Toft Tora Karlaya 6 7:16:00 11.1, 10.8 11.01 32, 39, 42 (Avg:40)
72 Kristel Surch Lindall Kalypso 7 7:53:00 10.1, 10.1 10.15 37, 45, 60 (Avg:52)
17 Kaylah Aistrope Emily Jones TE 8 8:16:00 9.9, 9.2 9.68 33, 42, 42 (Avg:42)
42 Steph Tulk Chaswyck The Maverick 9 8:19:00 9.9, 9.2 9.62 33, 41, 46 (Avg:43)
64 Kevin Kempter Gillian Lame L2 0:00:00 13.8, 12.4 - 35, 45, 48 (Avg:46)